createdAt,value
2018-12-02T00:00:01.256Z,13.43
2018-12-02T00:04:44.903Z,13.93
2018-12-02T00:09:27.767Z,14.63
2018-12-02T00:14:11.694Z,13.13
2018-12-02T00:18:55.019Z,13.17
2018-12-02T00:23:39.400Z,17.60
2018-12-02T00:28:22.483Z,18.67
2018-12-02T00:33:06.557Z,16.83
2018-12-02T00:37:53.288Z,16.23
2018-12-02T00:42:37.185Z,15.53
2018-12-02T00:47:21.151Z,15.43
2018-12-02T00:52:04.682Z,21.77
2018-12-02T00:56:47.692Z,16.90
2018-12-02T01:01:30.584Z,14.63
2018-12-02T01:06:15.073Z,15.83
2018-12-02T01:10:58.831Z,17.33
2018-12-02T01:15:44.167Z,18.17
2018-12-02T01:20:27.931Z,19.97
2018-12-02T01:25:12.603Z,17.03
2018-12-02T01:29:56.523Z,15.87
2018-12-02T01:34:42.213Z,15.83
2018-12-02T01:39:26.117Z,16.30
2018-12-02T01:44:11.814Z,13.60
2018-12-02T01:48:56.349Z,14.97
2018-12-02T01:53:39.885Z,14.17
2018-12-02T01:58:23.684Z,15.73
2018-12-02T02:03:07.507Z,15.33
2018-12-02T02:07:53.288Z,19.20
2018-12-02T02:12:37.365Z,20.63
2018-12-02T02:17:21.262Z,27.20
2018-12-02T02:22:04.170Z,25.13
2018-12-02T02:26:49.103Z,25.87
2018-12-02T02:31:31.973Z,27.37
2018-12-02T02:36:16.893Z,26.73
2018-12-02T02:40:59.770Z,31.03
2018-12-02T02:45:42.629Z,33.10
2018-12-02T02:50:26.014Z,28.70
2018-12-02T02:55:09.952Z,29.70
2018-12-02T02:59:52.817Z,29.27
2018-12-02T03:04:35.736Z,21.90
2018-12-02T03:09:18.601Z,18.27
2018-12-02T03:14:01.493Z,18.10
2018-12-02T03:18:44.346Z,14.50
2018-12-02T03:23:27.275Z,12.60
2018-12-02T03:28:10.426Z,14.37
2018-12-02T03:32:53.498Z,16.10
2018-12-02T03:37:40.027Z,15.93
2018-12-02T03:42:22.905Z,15.33
2018-12-02T03:47:07.504Z,16.83
2018-12-02T03:51:50.373Z,22.93
2018-12-02T03:56:36.414Z,19.37
2018-12-02T04:01:20.000Z,19.37
2018-12-02T04:06:03.702Z,18.33
2018-12-02T04:10:46.561Z,17.30
2018-12-02T04:15:29.504Z,15.17
2018-12-02T04:20:14.353Z,16.43
2018-12-02T04:24:58.300Z,13.03
2018-12-02T04:29:41.169Z,13.23
2018-12-02T04:34:27.360Z,15.30
2018-12-02T04:39:10.258Z,17.20
2018-12-02T04:43:54.320Z,19.30
2018-12-02T04:48:38.092Z,21.40
2018-12-02T04:53:21.383Z,14.33
2018-12-02T04:58:06.517Z,12.10
2018-12-02T05:02:52.112Z,13.47
2018-12-02T05:07:37.069Z,14.10
2018-12-02T05:12:19.947Z,16.40
2018-12-02T05:17:03.848Z,17.10
2018-12-02T05:21:46.722Z,12.40
2018-12-02T05:26:30.654Z,13.30
2018-12-02T05:31:14.458Z,11.77
2018-12-02T05:35:58.137Z,13.00
2018-12-02T05:40:41.791Z,14.70
2018-12-02T05:45:25.439Z,14.73
2018-12-02T05:50:13.588Z,12.60
2018-12-02T05:54:59.713Z,12.50
2018-12-02T05:59:42.592Z,12.40
2018-12-02T06:04:26.253Z,13.37
2018-12-02T06:09:10.093Z,17.03
2018-12-02T06:13:53.749Z,22.80
2018-12-02T06:18:37.400Z,22.13
2018-12-02T06:23:22.217Z,24.70
2018-12-02T06:28:06.247Z,23.27
2018-12-02T06:32:52.475Z,23.30
2018-12-02T06:37:36.458Z,25.60
2018-12-02T06:42:19.332Z,29.67
2018-12-02T06:47:05.992Z,27.47
2018-12-02T06:51:50.656Z,30.67
2018-12-02T06:56:43.376Z,21.83
2018-12-02T07:01:41.251Z,22.10
2018-12-02T07:06:27.965Z,21.13
2018-12-02T07:11:11.864Z,19.57
2018-12-02T07:15:57.568Z,19.73
2018-12-02T07:20:44.507Z,19.33
2018-12-02T07:25:31.765Z,19.10
2018-12-02T07:30:15.490Z,27.57
2018-12-02T07:35:00.977Z,56.73
2018-12-02T07:39:58.857Z,32.83
2018-12-02T07:44:42.868Z,27.40
2018-12-02T07:49:26.565Z,27.07
2018-12-02T07:54:11.491Z,31.73
2018-12-02T07:58:55.862Z,27.57
2018-12-02T08:03:42.121Z,26.50
2018-12-02T08:08:25.879Z,27.63
2018-12-02T08:13:10.853Z,28.80
2018-12-02T08:17:54.472Z,38.43
2018-12-02T08:22:38.266Z,39.90
2018-12-02T08:27:23.307Z,27.80
2018-12-02T08:32:08.636Z,32.40
2018-12-02T08:36:55.468Z,31.67
2018-12-02T08:41:40.267Z,34.30
2018-12-02T08:46:25.855Z,38.10
2018-12-02T08:51:10.913Z,39.40
2018-12-02T08:55:55.592Z,49.53
2018-12-02T09:00:39.415Z,53.83
2018-12-02T09:05:27.760Z,55.60
2018-12-02T09:10:14.911Z,41.27
2018-12-02T09:15:02.742Z,39.03
2018-12-02T09:19:46.310Z,29.60
2018-12-02T09:24:31.195Z,24.87
2018-12-02T09:29:15.402Z,20.60
2018-12-02T09:33:59.319Z,18.87
2018-12-02T09:38:43.864Z,18.07
2018-12-02T09:43:28.664Z,17.77
2018-12-02T09:48:12.829Z,17.93
2018-12-02T09:52:58.980Z,21.17
2018-12-02T09:57:43.026Z,21.67
2018-12-02T10:02:27.187Z,21.50
2018-12-02T10:07:13.315Z,21.23
2018-12-02T10:11:56.909Z,19.57
2018-12-02T10:16:45.082Z,22.00
2018-12-02T10:21:28.879Z,22.53
2018-12-02T10:26:14.660Z,22.67
2018-12-02T10:30:58.825Z,21.60
2018-12-02T10:35:42.969Z,31.10
2018-12-02T10:40:28.940Z,30.97
2018-12-02T10:45:16.289Z,26.57
2018-12-02T10:49:59.940Z,21.73
2018-12-02T10:54:43.733Z,22.43
2018-12-02T10:59:27.506Z,21.57
2018-12-02T11:04:11.412Z,22.90
2018-12-02T11:08:55.710Z,130.03
2018-12-02T11:13:39.730Z,55.33
2018-12-02T11:18:23.526Z,20.83
2018-12-02T11:23:11.125Z,18.20
2018-12-02T11:27:55.435Z,13.97
2018-12-02T11:32:40.484Z,12.00
2018-12-02T11:37:23.408Z,13.23
2018-12-02T11:42:06.317Z,12.33
2018-12-02T11:46:51.241Z,12.50
2018-12-02T11:51:34.913Z,14.83
2018-12-02T11:56:20.158Z,14.10
2018-12-02T12:01:04.949Z,14.97
2018-12-02T12:05:52.468Z,15.43
2018-12-02T12:10:36.998Z,15.30
2018-12-02T12:15:26.939Z,14.20
2018-12-02T12:20:16.051Z,12.63
2018-12-02T12:24:59.849Z,13.43
2018-12-02T12:29:43.495Z,17.03
2018-12-02T12:34:27.165Z,24.87
2018-12-02T12:39:10.937Z,27.90
2018-12-02T12:43:55.052Z,27.87
2018-12-02T12:48:38.261Z,19.30
2018-12-02T12:53:21.288Z,18.50
2018-12-02T12:58:04.893Z,23.73
2018-12-02T13:02:49.706Z,29.23
2018-12-02T13:07:33.214Z,35.57
2018-12-02T13:12:18.923Z,36.37
2018-12-02T13:17:03.078Z,41.33
2018-12-02T13:21:47.125Z,37.57
2018-12-02T13:26:33.967Z,43.30
2018-12-02T13:31:20.157Z,46.53
2018-12-02T13:36:07.640Z,47.80
2018-12-02T13:40:56.136Z,48.33
2018-12-02T13:45:44.158Z,51.67
2018-12-02T13:50:27.830Z,53.60
2018-12-02T13:55:12.816Z,57.50
2018-12-02T13:59:56.430Z,52.80
2018-12-02T14:04:40.322Z,51.47
2018-12-02T14:09:24.485Z,59.10
2018-12-02T14:14:09.689Z,58.03
2018-12-02T14:18:55.002Z,57.57
2018-12-02T14:23:42.673Z,65.47
2018-12-02T14:28:30.834Z,70.20
2018-12-02T14:33:14.573Z,82.83
2018-12-02T14:37:58.488Z,83.93
2018-12-02T14:44:14.759Z,73.87
2018-12-02T14:48:57.715Z,72.70
2018-12-02T14:53:42.659Z,59.67
2018-12-02T14:58:25.587Z,58.80
2018-12-02T15:03:08.724Z,57.27
2018-12-02T15:07:51.609Z,65.67
2018-12-02T15:12:35.759Z,54.30
2018-12-02T15:17:18.681Z,56.20
2018-12-02T15:22:01.566Z,56.93
2018-12-02T15:26:44.588Z,60.03
2018-12-02T15:31:27.438Z,71.27
2018-12-02T15:36:11.522Z,62.40
2018-12-02T15:40:54.400Z,65.83
2018-12-02T15:45:38.423Z,59.23
2018-12-02T15:50:22.787Z,50.23
2018-12-02T15:55:07.966Z,48.37
2018-12-02T15:59:51.987Z,53.23
2018-12-02T16:04:36.904Z,51.23
2018-12-02T16:09:22.556Z,51.50
2018-12-02T16:14:07.148Z,51.90
2018-12-02T16:18:50.053Z,52.00
2018-12-02T16:23:33.019Z,68.27
2018-12-02T16:28:16.066Z,79.17
2018-12-02T16:32:59.083Z,65.60
2018-12-02T16:37:42.310Z,46.07
2018-12-02T16:42:28.213Z,44.67
2018-12-02T16:47:12.722Z,48.93
2018-12-02T16:52:00.546Z,51.93
2018-12-02T16:56:45.733Z,80.23
2018-12-02T17:01:31.817Z,53.63
2018-12-02T17:06:16.368Z,48.13
2018-12-02T17:11:00.361Z,57.60
2018-12-02T17:15:47.339Z,56.23
2018-12-02T17:20:31.611Z,74.17
2018-12-02T17:25:15.657Z,61.63
2018-12-02T17:29:59.060Z,47.77
2018-12-02T17:34:42.839Z,61.43
2018-12-02T17:39:27.953Z,58.20
2018-12-02T17:44:12.452Z,73.47
2018-12-02T17:48:55.338Z,53.97
2018-12-02T17:53:40.723Z,43.40
2018-12-02T17:58:23.598Z,39.30
2018-12-02T18:03:09.092Z,37.77
2018-12-02T18:07:54.732Z,33.60
2018-12-02T18:12:38.442Z,36.23
2018-12-02T18:17:22.086Z,36.20
2018-12-02T18:22:08.182Z,35.63
2018-12-02T18:26:52.264Z,39.07
2018-12-02T18:31:37.275Z,35.07
2018-12-02T18:36:27.391Z,33.17
2018-12-02T18:41:14.914Z,34.57
2018-12-02T18:45:59.960Z,36.50
2018-12-02T18:50:43.655Z,37.63
2018-12-02T18:55:28.716Z,36.73
2018-12-02T19:00:20.903Z,38.43
2018-12-02T19:05:06.515Z,35.17
2018-12-02T19:09:50.412Z,40.23
2018-12-02T19:14:34.065Z,40.87
2018-12-02T19:19:17.975Z,39.43
2018-12-02T19:24:01.890Z,38.70
2018-12-02T19:28:46.038Z,35.47
2018-12-02T19:33:33.532Z,36.80
2018-12-02T19:38:21.742Z,36.83
2018-12-02T19:43:06.273Z,35.33
2018-12-02T19:47:50.764Z,37.03
2018-12-02T19:52:34.926Z,37.07
2018-12-02T19:57:19.466Z,34.07
2018-12-02T20:02:04.652Z,43.10
2018-12-02T20:06:48.577Z,37.47
2018-12-02T20:11:35.590Z,34.90
2018-12-02T20:16:19.333Z,32.60
2018-12-02T20:21:03.748Z,37.47
2018-12-02T20:25:48.423Z,40.17
2018-12-02T20:30:33.776Z,53.27
2018-12-02T20:35:17.372Z,50.73
2018-12-02T20:40:01.550Z,50.97
2018-12-02T20:44:45.450Z,57.63
2018-12-02T20:49:29.106Z,53.40
2018-12-02T20:54:13.576Z,51.73
2018-12-02T20:58:57.175Z,50.70
2018-12-02T21:03:43.630Z,55.80
2018-12-02T21:08:27.295Z,57.10
2018-12-02T21:13:10.997Z,59.13
2018-12-02T21:17:54.594Z,56.47
2018-12-02T21:22:40.544Z,57.00
2018-12-02T21:27:24.332Z,50.17
2018-12-02T21:32:11.422Z,57.37
2018-12-02T21:36:55.474Z,55.73
2018-12-02T21:41:42.821Z,59.83
2018-12-02T21:46:26.191Z,70.53
2018-12-02T21:51:09.870Z,72.73
2018-12-02T21:55:53.516Z,65.67
2018-12-02T22:00:42.944Z,55.50
2018-12-02T22:05:26.724Z,55.50
2018-12-02T22:10:11.911Z,59.10
2018-12-02T22:14:55.603Z,55.97
2018-12-02T22:19:39.245Z,63.73
2018-12-02T22:24:24.583Z,52.77
2018-12-02T22:29:08.294Z,51.87
2018-12-02T22:33:52.211Z,51.17
2018-12-02T22:38:35.871Z,49.63
2018-12-02T22:43:20.418Z,48.37
2018-12-02T22:48:04.178Z,44.73
2018-12-02T22:52:52.323Z,43.33
2018-12-02T22:57:35.838Z,37.73
2018-12-02T23:02:24.558Z,36.77
2018-12-02T23:07:08.512Z,36.83
2018-12-02T23:11:53.754Z,36.07
2018-12-02T23:16:38.609Z,34.23
2018-12-02T23:21:22.272Z,30.73
2018-12-02T23:26:06.189Z,34.63
2018-12-02T23:30:51.887Z,33.83
2018-12-02T23:35:35.539Z,34.90
2018-12-02T23:40:21.483Z,32.90
2018-12-02T23:45:09.245Z,33.13
2018-12-02T23:49:52.910Z,33.93
2018-12-02T23:54:38.729Z,31.97
2018-12-02T23:59:22.547Z,31.13
